createdAt,value
2018-06-11T00:01:42.020Z,90.70
2018-06-11T00:04:14.421Z,90.30
2018-06-11T00:06:46.727Z,90.30
2018-06-11T00:11:48.826Z,90.40
2018-06-11T00:14:22.104Z,90.50
2018-06-11T00:16:55.420Z,90.40
2018-06-11T00:19:26.963Z,90.60
2018-06-11T00:21:59.474Z,90.60
2018-06-11T00:24:32.143Z,90.80
2018-06-11T00:27:05.735Z,90.80
2018-06-11T00:29:37.269Z,90.60
2018-06-11T00:32:10.338Z,90.50
2018-06-11T00:34:51.775Z,90.10
2018-06-11T00:37:23.082Z,90.40
2018-06-11T00:39:54.169Z,90.20
2018-06-11T00:42:24.632Z,90.40
2018-06-11T00:45:01.160Z,90.30
2018-06-11T00:47:33.864Z,90.80
2018-06-11T00:50:06.901Z,90.80
2018-06-11T00:52:39.454Z,90.70
2018-06-11T00:55:12.841Z,90.70
2018-06-11T00:57:45.453Z,90.50
2018-06-11T01:00:17.848Z,90.60
2018-06-11T01:02:51.007Z,90.70
2018-06-11T01:05:21.943Z,90.20
2018-06-11T01:07:52.700Z,90.20
2018-06-11T01:10:23.505Z,89.80
2018-06-11T01:12:55.666Z,90.00
2018-06-11T01:15:28.065Z,90.00
2018-06-11T01:17:58.869Z,90.00
2018-06-11T01:20:31.065Z,90.10
2018-06-11T01:23:04.098Z,90.00
2018-06-11T01:25:39.703Z,90.10
2018-06-11T01:28:11.744Z,90.10
2018-06-11T01:30:44.110Z,90.10
2018-06-11T01:33:16.014Z,90.20
2018-06-11T01:35:49.667Z,90.20
2018-06-11T01:38:20.800Z,90.30
2018-06-11T01:40:51.429Z,90.30
2018-06-11T01:43:21.286Z,90.30
2018-06-11T01:45:53.468Z,90.60
2018-06-11T01:48:25.086Z,90.40
2018-06-11T01:50:56.234Z,90.60
2018-06-11T01:53:28.228Z,90.70
2018-06-11T01:55:59.762Z,91.00
2018-06-11T01:58:32.086Z,90.80
2018-06-11T02:01:03.825Z,91.00
2018-06-11T02:03:34.314Z,90.90
2018-06-11T02:06:06.470Z,90.80
2018-06-11T02:08:37.624Z,90.90
2018-06-11T02:11:08.755Z,90.80
2018-06-11T02:16:11.356Z,90.70
2018-06-11T02:18:42.256Z,90.70
2018-06-11T02:21:11.836Z,91.00
2018-06-11T02:23:42.214Z,90.90
2018-06-11T02:26:12.058Z,90.60
2018-06-11T02:28:52.097Z,90.40
2018-06-11T02:31:29.758Z,90.60
2018-06-11T02:34:01.285Z,90.30
2018-06-11T02:36:32.041Z,90.50
2018-06-11T02:39:02.080Z,90.50
2018-06-11T02:41:31.616Z,90.20
2018-06-11T02:44:02.128Z,90.30
2018-06-11T02:46:31.748Z,90.20
2018-06-11T02:49:03.098Z,90.40
2018-06-11T02:51:33.865Z,90.40
2018-06-11T02:54:05.132Z,90.30
2018-06-11T02:56:37.910Z,90.40
2018-06-11T02:59:08.772Z,90.50
2018-06-11T03:01:42.388Z,90.70
2018-06-11T03:04:16.102Z,90.70
2018-06-11T03:06:48.170Z,90.90
2018-06-11T03:11:57.695Z,91.00
2018-06-11T03:14:31.617Z,91.20
2018-06-11T03:17:06.912Z,91.20
2018-06-11T03:19:47.195Z,91.20
2018-06-11T03:22:20.212Z,91.20
2018-06-11T03:24:59.985Z,91.10
2018-06-11T03:27:35.976Z,91.10
2018-06-11T03:30:09.787Z,91.20
2018-06-11T03:32:52.338Z,91.10
2018-06-11T03:35:32.081Z,91.30
2018-06-11T03:38:14.063Z,91.30
2018-06-11T03:40:45.681Z,91.40
2018-06-11T03:43:16.664Z,91.40
2018-06-11T03:45:51.917Z,91.50
2018-06-11T03:48:30.768Z,91.50
2018-06-11T03:51:12.146Z,91.50
2018-06-11T03:53:42.018Z,91.60
2018-06-11T03:56:11.645Z,91.60
2018-06-11T03:58:43.477Z,91.70
2018-06-11T04:01:17.947Z,91.70
2018-06-11T04:03:48.299Z,91.70
2018-06-11T04:06:17.949Z,91.50
2018-06-11T04:08:49.023Z,91.30
2018-06-11T04:11:18.994Z,91.20
2018-06-11T04:13:50.181Z,91.10
2018-06-11T04:16:20.567Z,91.10
2018-06-11T04:18:51.443Z,90.90
2018-06-11T04:21:21.064Z,90.60
2018-06-11T04:23:50.971Z,90.60
2018-06-11T04:26:20.429Z,90.60
2018-06-11T04:28:54.506Z,90.40
2018-06-11T04:31:24.480Z,90.40
2018-06-11T04:33:55.324Z,90.40
2018-06-11T04:36:25.509Z,90.40
2018-06-11T04:38:55.971Z,90.30
2018-06-11T04:41:25.424Z,90.40
2018-06-11T04:43:55.201Z,90.40
2018-06-11T04:46:24.931Z,90.50
2018-06-11T04:48:55.409Z,90.60
2018-06-11T04:51:25.181Z,90.60
2018-06-11T04:53:55.793Z,90.70
2018-06-11T04:56:26.876Z,90.80
2018-06-11T04:58:57.709Z,90.70
2018-06-11T05:01:28.663Z,90.60
2018-06-11T05:03:59.849Z,90.70
2018-06-11T05:06:29.641Z,90.40
2018-06-11T05:09:00.632Z,90.50
2018-06-11T05:11:31.001Z,90.50
2018-06-11T05:16:29.940Z,90.50
2018-06-11T05:18:59.485Z,90.30
2018-06-11T05:21:28.800Z,90.70
2018-06-11T05:23:59.576Z,90.80
2018-06-11T05:26:29.272Z,90.90
2018-06-11T05:28:59.308Z,90.80
2018-06-11T05:31:29.310Z,90.90
2018-06-11T05:33:59.200Z,90.90
2018-06-11T05:36:29.398Z,90.90
2018-06-11T05:38:59.215Z,90.80
2018-06-11T05:41:28.637Z,90.90
2018-06-11T05:44:00.163Z,90.70
2018-06-11T05:46:30.235Z,90.30
2018-06-11T05:49:06.211Z,90.50
2018-06-11T05:51:37.815Z,90.60
2018-06-11T05:56:36.881Z,90.10
2018-06-11T05:59:07.128Z,90.20
2018-06-11T06:01:38.547Z,90.00
2018-06-11T06:04:09.280Z,90.20
2018-06-11T06:06:40.275Z,90.10
2018-06-11T06:09:10.574Z,90.00
2018-06-11T06:11:44.532Z,90.20
2018-06-11T06:14:13.873Z,90.30
2018-06-11T06:16:43.218Z,90.20
2018-06-11T06:19:12.775Z,90.00
2018-06-11T06:21:43.675Z,89.60
2018-06-11T06:24:13.733Z,89.40
2018-06-11T06:26:43.551Z,89.60
2018-06-11T06:29:14.714Z,89.10
2018-06-11T06:31:44.880Z,89.40
2018-06-11T06:34:20.145Z,89.50
2018-06-11T06:36:50.721Z,88.70
2018-06-11T06:39:20.746Z,88.10
2018-06-11T06:41:50.564Z,88.00
2018-06-11T06:44:19.862Z,87.80
2018-06-11T06:46:49.715Z,87.70
2018-06-11T06:49:19.878Z,87.30
2018-06-11T06:51:51.357Z,86.80
2018-06-11T06:54:24.486Z,86.90
2018-06-11T06:56:53.482Z,86.40
2018-06-11T06:59:24.758Z,85.50
2018-06-11T07:01:53.780Z,85.70
2018-06-11T07:04:23.516Z,85.50
2018-06-11T07:09:49.554Z,84.30
2018-06-11T07:12:22.611Z,83.80
2018-06-11T07:14:56.533Z,83.90
2018-06-11T07:17:30.854Z,83.30
2018-06-11T07:20:01.157Z,83.40
2018-06-11T07:22:32.583Z,83.00
2018-06-11T07:25:01.697Z,83.40
2018-06-11T07:27:32.627Z,83.40
2018-06-11T07:30:03.204Z,83.40
2018-06-11T07:32:32.695Z,83.10
2018-06-11T07:35:02.546Z,82.80
2018-06-11T07:37:33.733Z,83.40
2018-06-11T07:40:04.941Z,82.70
2018-06-11T07:42:36.860Z,82.40
2018-06-11T07:45:08.048Z,81.80
2018-06-11T07:47:41.891Z,81.70
2018-06-11T07:50:15.663Z,80.10
2018-06-11T07:52:47.366Z,78.90
2018-06-11T07:55:18.151Z,79.10
2018-06-11T07:57:53.481Z,79.00
2018-06-11T08:00:26.782Z,78.90
2018-06-11T08:03:01.914Z,78.20
2018-06-11T08:05:33.953Z,77.80
2018-06-11T08:08:06.246Z,76.20
2018-06-11T08:10:38.586Z,76.00
2018-06-11T08:13:08.258Z,75.90
2018-06-11T08:15:37.532Z,76.00
2018-06-11T08:18:13.498Z,77.10
2018-06-11T08:20:43.346Z,77.10
2018-06-11T08:23:24.928Z,77.80
2018-06-11T08:26:00.103Z,78.10
2018-06-11T08:28:30.976Z,78.40
2018-06-11T08:31:04.733Z,78.20
2018-06-11T08:33:35.760Z,78.80
2018-06-11T08:36:06.946Z,78.30
2018-06-11T08:41:12.104Z,78.00
2018-06-11T08:46:11.382Z,78.20
2018-06-11T08:48:41.979Z,78.20
2018-06-11T08:51:13.165Z,78.00
2018-06-11T08:53:42.877Z,78.90
2018-06-11T08:56:12.998Z,78.80
2018-06-11T08:58:44.036Z,79.60
2018-06-11T09:01:20.410Z,78.00
2018-06-11T09:03:50.841Z,78.20
2018-06-11T09:06:23.817Z,78.30
2018-06-11T09:08:56.447Z,78.00
2018-06-11T09:11:30.728Z,77.70
2018-06-11T09:16:34.421Z,77.20
2018-06-11T09:19:05.401Z,76.50
2018-06-11T09:21:35.921Z,76.00
2018-06-11T09:26:40.744Z,76.00
2018-06-11T09:29:18.295Z,76.50
2018-06-11T09:31:47.845Z,76.90
2018-06-11T09:34:17.543Z,78.00
2018-06-11T09:39:27.757Z,77.60
2018-06-11T09:44:49.072Z,75.40
2018-06-11T09:47:34.465Z,75.70
2018-06-11T09:56:17.242Z,72.80
2018-06-11T09:58:54.250Z,71.90
2018-06-11T10:01:27.750Z,70.60
2018-06-11T10:04:00.793Z,70.10
2018-06-11T10:06:47.114Z,69.40
2018-06-11T10:09:41.448Z,70.40
2018-06-11T10:15:16.906Z,72.00
2018-06-11T10:20:34.124Z,69.40
2018-06-11T10:23:14.294Z,68.00
2018-06-11T10:25:54.277Z,65.50
2018-06-11T10:31:31.995Z,66.20
2018-06-11T10:36:56.536Z,68.80
2018-06-11T11:06:19.727Z,71.00
2018-06-11T11:11:33.795Z,68.80
2018-06-11T11:16:48.334Z,67.60
2018-06-11T11:19:22.619Z,67.90
2018-06-11T11:24:30.473Z,66.90
2018-06-11T11:27:05.047Z,66.40
2018-06-11T11:32:25.966Z,64.30
2018-06-11T11:35:03.704Z,63.60
2018-06-11T11:37:39.737Z,63.70
2018-06-11T11:40:16.019Z,65.40
2018-06-11T11:43:02.395Z,64.50
2018-06-11T11:48:14.290Z,63.70
2018-06-11T11:56:07.260Z,64.60
2018-06-11T11:58:44.550Z,64.30
2018-06-11T12:01:18.103Z,64.60
2018-06-11T12:03:56.483Z,63.80
2018-06-11T12:06:30.864Z,63.80
2018-06-11T12:09:16.820Z,64.00
2018-06-11T12:11:56.249Z,64.10
2018-06-11T12:14:33.055Z,62.70
2018-06-11T12:20:23.020Z,64.50
2018-06-11T12:23:01.120Z,64.70
2018-06-11T12:25:35.454Z,63.20
2018-06-11T12:28:18.579Z,64.20
2018-06-11T12:31:02.791Z,64.10
2018-06-11T12:33:36.428Z,62.80
2018-06-11T12:36:08.579Z,62.40
2018-06-11T12:41:38.300Z,60.50
2018-06-11T12:44:22.408Z,59.40
2018-06-11T12:47:01.826Z,58.00
2018-06-11T12:49:36.741Z,57.70
2018-06-11T12:55:05.105Z,58.20
2018-06-11T12:57:38.148Z,58.60
2018-06-11T13:00:11.602Z,58.00
2018-06-11T13:02:44.062Z,58.60
2018-06-11T13:05:24.350Z,58.80
2018-06-11T13:07:56.954Z,58.80
2018-06-11T13:10:29.149Z,61.10
2018-06-11T13:13:05.447Z,59.50
2018-06-11T13:15:42.030Z,59.10
2018-06-11T13:18:23.427Z,59.30
2018-06-11T13:20:56.819Z,60.70
2018-06-11T13:23:27.788Z,60.40
2018-06-11T13:28:34.037Z,59.50
2018-06-11T13:31:05.016Z,59.70
2018-06-11T13:33:38.475Z,59.90
2018-06-11T13:36:10.420Z,60.60
2018-06-11T13:38:41.948Z,60.90
2018-06-11T13:41:12.718Z,60.70
2018-06-11T13:43:43.283Z,61.20
2018-06-11T13:46:13.210Z,61.50
2018-06-11T13:48:48.476Z,61.90
2018-06-11T13:51:17.790Z,62.60
2018-06-11T13:53:50.841Z,63.00
2018-06-11T13:56:20.305Z,63.10
2018-06-11T13:58:51.101Z,64.20
2018-06-11T14:01:21.179Z,62.90
2018-06-11T14:03:51.089Z,63.20
2018-06-11T14:06:20.918Z,62.60
2018-06-11T14:08:52.239Z,62.80
2018-06-11T14:11:25.125Z,63.60
2018-06-11T14:16:27.916Z,63.90
2018-06-11T14:18:57.392Z,63.70
2018-06-11T14:21:26.435Z,65.20
2018-06-11T14:23:55.885Z,63.80
2018-06-11T14:26:25.087Z,64.60
2018-06-11T14:28:55.360Z,63.80
2018-06-11T14:31:26.797Z,64.20
2018-06-11T14:33:56.131Z,63.50
2018-06-11T14:36:25.539Z,64.60
2018-06-11T14:38:57.800Z,64.00
2018-06-11T14:41:29.689Z,63.90
2018-06-11T14:43:59.752Z,63.70
2018-06-11T14:46:29.611Z,63.90
2018-06-11T14:48:58.859Z,63.20
2018-06-11T14:51:31.991Z,64.10
2018-06-11T14:54:10.044Z,64.60
2018-06-11T14:56:39.931Z,65.70
2018-06-11T14:59:09.572Z,67.00
2018-06-11T15:01:39.849Z,66.90
2018-06-11T15:04:10.316Z,66.80
2018-06-11T15:06:43.163Z,68.00
2018-06-11T15:09:15.882Z,67.70
2018-06-11T15:11:45.121Z,68.40
2018-06-11T15:14:16.595Z,66.90
2018-06-11T15:16:47.264Z,67.70
2018-06-11T15:19:16.615Z,69.20
2018-06-11T15:21:47.916Z,69.80
2018-06-11T15:24:17.809Z,69.60
2018-06-11T15:26:47.525Z,69.90
2018-06-11T15:29:23.287Z,69.50
2018-06-11T15:31:56.176Z,70.40
2018-06-11T15:34:25.756Z,70.60
2018-06-11T15:36:55.483Z,70.30
2018-06-11T15:39:25.411Z,70.20
2018-06-11T15:41:55.232Z,71.40
2018-06-11T15:44:24.537Z,69.90
2018-06-11T15:46:54.489Z,70.00
2018-06-11T15:49:24.542Z,72.00
2018-06-11T15:51:54.053Z,70.60
2018-06-11T15:54:23.898Z,72.00
2018-06-11T15:56:53.187Z,72.20
2018-06-11T15:59:22.584Z,71.90
2018-06-11T16:01:52.798Z,72.20
2018-06-11T16:04:31.533Z,74.30
2018-06-11T16:07:03.136Z,73.50
2018-06-11T16:09:34.795Z,73.00
2018-06-11T16:12:04.915Z,73.10
2018-06-11T16:14:34.055Z,73.50
2018-06-11T16:17:03.599Z,73.70
2018-06-11T16:19:35.662Z,73.60
2018-06-11T16:22:04.930Z,73.60
2018-06-11T16:24:34.746Z,73.90
2018-06-11T16:27:04.448Z,74.60
2018-06-11T16:29:34.154Z,73.90
2018-06-11T16:32:04.015Z,72.50
2018-06-11T16:34:33.311Z,72.70
2018-06-11T16:37:04.091Z,72.50
2018-06-11T16:39:34.311Z,72.20
2018-06-11T16:44:34.367Z,73.70
2018-06-11T16:47:03.207Z,73.20
2018-06-11T16:49:33.533Z,72.90
2018-06-11T16:52:03.735Z,71.30
2018-06-11T16:54:34.755Z,72.60
2018-06-11T16:57:04.456Z,77.50
2018-06-11T16:59:35.185Z,73.30
2018-06-11T17:02:04.935Z,71.70
2018-06-11T17:04:34.689Z,71.10
2018-06-11T17:07:06.356Z,72.70
2018-06-11T17:09:36.327Z,72.50
2018-06-11T17:14:34.890Z,71.90
2018-06-11T17:17:05.385Z,72.60
2018-06-11T17:19:34.414Z,74.90
2018-06-11T17:22:03.514Z,73.10
2018-06-11T17:24:32.492Z,72.40
2018-06-11T17:27:01.588Z,72.60
2018-06-11T17:29:30.553Z,71.60
2018-06-11T17:31:59.611Z,72.90
2018-06-11T17:34:28.850Z,73.10
2018-06-11T17:36:58.092Z,72.30
2018-06-11T17:39:27.055Z,72.70
2018-06-11T17:41:57.391Z,71.40
2018-06-11T17:47:03.621Z,71.30
2018-06-11T17:49:32.688Z,71.00
2018-06-11T17:52:01.666Z,71.10
2018-06-11T17:54:30.811Z,71.60
2018-06-11T17:56:59.876Z,71.30
2018-06-11T17:59:28.952Z,71.80
2018-06-11T18:01:57.955Z,70.60
2018-06-11T18:04:27.266Z,71.40
2018-06-11T18:06:56.265Z,70.40
2018-06-11T18:09:25.273Z,69.70
2018-06-11T18:11:54.344Z,70.80
2018-06-11T18:14:23.220Z,69.40
2018-06-11T18:16:52.185Z,69.40
2018-06-11T18:19:21.102Z,68.80
2018-06-11T18:21:50.413Z,69.10
2018-06-11T18:24:19.546Z,69.60
2018-06-11T18:26:48.536Z,68.40
2018-06-11T18:29:17.409Z,68.20
2018-06-11T18:31:46.732Z,68.20
2018-06-11T18:34:15.936Z,70.50
2018-06-11T18:36:44.883Z,70.10
2018-06-11T18:39:13.761Z,73.50
2018-06-11T18:41:42.728Z,70.30
2018-06-11T18:44:11.732Z,72.60
2018-06-11T18:46:40.687Z,70.00
2018-06-11T18:49:10.149Z,72.40
2018-06-11T18:51:39.024Z,71.90
2018-06-11T18:54:08.063Z,72.90
2018-06-11T18:56:36.861Z,72.50
2018-06-11T18:59:05.903Z,72.90
2018-06-11T19:01:34.823Z,73.50
2018-06-11T19:04:03.855Z,74.30
2018-06-11T19:06:32.843Z,74.00
2018-06-11T19:09:01.841Z,74.30
2018-06-11T19:11:30.731Z,74.60
2018-06-11T19:13:59.676Z,75.40
2018-06-11T19:16:28.631Z,76.70
2018-06-11T19:18:57.563Z,78.10
2018-06-11T19:21:26.519Z,78.00
2018-06-11T19:23:55.403Z,81.50
2018-06-11T19:26:24.390Z,83.60
2018-06-11T19:28:53.498Z,85.60
2018-06-11T19:31:22.543Z,85.80
2018-06-11T19:33:51.467Z,87.60
2018-06-11T19:36:20.559Z,86.10
2018-06-11T19:38:49.482Z,86.40
2018-06-11T19:41:18.415Z,86.30
2018-06-11T19:43:47.270Z,87.00
2018-06-11T19:46:16.286Z,87.60
2018-06-11T19:48:45.435Z,87.20
2018-06-11T19:51:14.525Z,87.70
2018-06-11T19:53:43.494Z,87.90
2018-06-11T19:56:12.517Z,86.60
2018-06-11T19:58:41.382Z,88.10
2018-06-11T20:01:10.303Z,89.30
2018-06-11T20:03:39.355Z,89.80
2018-06-11T20:06:08.464Z,89.90
2018-06-11T20:08:37.587Z,90.20
2018-06-11T20:11:06.569Z,90.50
2018-06-11T20:13:35.518Z,90.50
2018-06-11T20:16:04.741Z,91.20
2018-06-11T20:18:33.730Z,91.40
2018-06-11T20:23:31.155Z,91.70
2018-06-11T20:26:00.111Z,91.70
2018-06-11T20:28:29.072Z,92.10
2018-06-11T20:30:57.960Z,92.10
2018-06-11T20:33:27.163Z,92.40
2018-06-11T20:35:56.266Z,92.40
2018-06-11T20:38:25.248Z,92.30
2018-06-11T20:40:54.262Z,92.60
2018-06-11T20:43:23.314Z,92.20
2018-06-11T20:45:52.287Z,91.30
2018-06-11T20:48:21.455Z,90.30
2018-06-11T20:50:50.412Z,90.70
2018-06-11T20:53:19.497Z,90.60
2018-06-11T20:55:48.479Z,90.70
2018-06-11T20:58:17.416Z,90.40
2018-06-11T21:00:46.434Z,90.50
2018-06-11T21:03:15.355Z,90.80
2018-06-11T21:05:44.322Z,90.30
2018-06-11T21:08:13.468Z,90.30
2018-06-11T21:10:42.427Z,90.50
2018-06-11T21:13:11.357Z,89.60
2018-06-11T21:15:40.490Z,90.10
2018-06-11T21:18:10.163Z,90.00
2018-06-11T21:20:40.043Z,89.70
2018-06-11T21:23:08.918Z,89.60
2018-06-11T21:25:37.837Z,89.50
2018-06-11T21:28:06.695Z,89.10
2018-06-11T21:30:35.605Z,89.00
2018-06-11T21:33:06.311Z,88.90
2018-06-11T21:35:35.304Z,89.10
2018-06-11T21:38:04.355Z,89.00
2018-06-11T21:40:33.494Z,89.20
2018-06-11T21:43:02.560Z,89.60
2018-06-11T21:45:31.677Z,90.20
2018-06-11T21:48:00.716Z,90.40
2018-06-11T21:50:29.594Z,90.70
2018-06-11T21:52:58.501Z,90.60
2018-06-11T21:55:27.374Z,89.70
2018-06-11T21:57:56.470Z,89.70
2018-06-11T22:00:25.462Z,89.00
2018-06-11T22:02:54.367Z,88.70
2018-06-11T22:05:23.267Z,88.90
2018-06-11T22:07:52.287Z,90.20
2018-06-11T22:10:21.204Z,90.90
2018-06-11T22:12:50.123Z,90.30
2018-06-11T22:15:19.044Z,89.00
2018-06-11T22:17:47.904Z,88.80
2018-06-11T22:20:16.877Z,88.20
2018-06-11T22:22:46.026Z,88.40
2018-06-11T22:25:15.097Z,87.20
2018-06-11T22:27:43.991Z,87.00
2018-06-11T22:30:12.937Z,86.70
2018-06-11T22:32:41.917Z,85.40
2018-06-11T22:35:10.909Z,84.50
2018-06-11T22:37:39.913Z,84.30
2018-06-11T22:40:08.884Z,84.40
2018-06-11T22:42:37.822Z,84.50
2018-06-11T22:45:07.630Z,86.20
2018-06-11T22:47:36.683Z,86.90
2018-06-11T22:50:05.767Z,87.00
2018-06-11T22:52:34.800Z,86.90
2018-06-11T22:55:03.727Z,87.70
2018-06-11T22:57:32.696Z,88.90
2018-06-11T23:00:01.578Z,88.40
2018-06-11T23:02:30.748Z,86.60
2018-06-11T23:04:59.670Z,86.60
2018-06-11T23:07:28.573Z,87.40
2018-06-11T23:09:57.634Z,87.70
2018-06-11T23:12:26.523Z,87.40
2018-06-11T23:14:55.418Z,87.90
2018-06-11T23:17:24.381Z,88.10
2018-06-11T23:19:53.244Z,87.90
2018-06-11T23:22:22.158Z,89.30
2018-06-11T23:24:51.094Z,89.40
2018-06-11T23:27:19.994Z,89.80
2018-06-11T23:29:48.875Z,90.20
2018-06-11T23:32:17.838Z,90.10
2018-06-11T23:34:46.783Z,90.00
2018-06-11T23:37:15.654Z,89.30
2018-06-11T23:39:44.590Z,90.20
2018-06-11T23:42:13.478Z,90.00
2018-06-11T23:44:42.411Z,90.00
2018-06-11T23:47:11.580Z,90.30
2018-06-11T23:49:40.475Z,90.50
2018-06-11T23:52:09.515Z,90.50
2018-06-11T23:54:38.460Z,90.70
2018-06-11T23:57:07.638Z,91.00
2018-06-11T23:59:36.635Z,91.00
